createdAt,value
2023-12-18T00:02:13.727Z,93.63
2023-12-18T00:04:45.562Z,93.65
2023-12-18T00:07:16.932Z,93.65
2023-12-18T00:09:45.349Z,93.63
2023-12-18T00:12:14.343Z,93.61
2023-12-18T00:14:43.099Z,93.60
2023-12-18T00:17:14.261Z,93.67
2023-12-18T00:19:43.664Z,93.71
2023-12-18T00:22:14.566Z,93.77
2023-12-18T00:24:44.169Z,93.75
2023-12-18T00:27:12.626Z,93.82
2023-12-18T00:29:43.630Z,93.88
2023-12-18T00:32:14.043Z,93.91
2023-12-18T00:34:47.011Z,93.96
2023-12-18T00:37:17.364Z,94.05
2023-12-18T00:39:46.530Z,94.10
2023-12-18T00:42:16.230Z,94.23
2023-12-18T00:44:45.648Z,94.31
2023-12-18T00:47:24.554Z,94.37
2023-12-18T00:49:53.381Z,94.40
2023-12-18T00:52:23.808Z,94.47
2023-12-18T00:54:55.368Z,94.57
2023-12-18T00:57:23.743Z,94.65
2023-12-18T00:59:56.336Z,94.76
2023-12-18T01:02:28.209Z,94.78
2023-12-18T01:04:56.912Z,94.81
2023-12-18T01:07:27.693Z,94.86
2023-12-18T01:09:59.879Z,94.85
2023-12-18T01:12:28.771Z,94.86
2023-12-18T01:14:57.190Z,94.85
2023-12-18T01:17:32.993Z,94.92
2023-12-18T01:20:10.762Z,95.09
2023-12-18T01:22:39.676Z,95.18
2023-12-18T01:25:12.504Z,95.21
2023-12-18T01:27:42.564Z,95.25
2023-12-18T01:30:15.650Z,95.27
2023-12-18T01:32:45.253Z,95.41
2023-12-18T01:35:17.902Z,95.42
2023-12-18T01:37:47.159Z,95.51
2023-12-18T01:40:16.272Z,95.51
2023-12-18T01:42:49.251Z,95.63
2023-12-18T01:45:21.090Z,95.64
2023-12-18T01:47:49.988Z,95.69
2023-12-18T01:50:27.488Z,95.71
2023-12-18T01:52:56.834Z,95.72
2023-12-18T01:55:29.360Z,95.73
2023-12-18T01:57:59.543Z,95.79
2023-12-18T02:00:28.262Z,95.78
2023-12-18T02:02:56.896Z,95.85
2023-12-18T02:05:29.539Z,95.90
2023-12-18T02:07:58.453Z,95.97
2023-12-18T02:10:27.758Z,96.03
2023-12-18T02:12:59.250Z,96.07
2023-12-18T02:15:29.054Z,96.08
2023-12-18T02:17:57.976Z,96.13
2023-12-18T02:20:29.278Z,96.25
2023-12-18T02:23:03.751Z,96.29
2023-12-18T02:25:32.533Z,96.35
2023-12-18T02:28:01.372Z,96.44
2023-12-18T02:30:30.450Z,96.49
2023-12-18T02:33:02.205Z,96.56
2023-12-18T02:35:32.779Z,96.59
2023-12-18T02:38:05.540Z,96.63
2023-12-18T02:40:36.049Z,96.70
2023-12-18T02:43:04.442Z,96.72
2023-12-18T02:45:35.099Z,96.73
2023-12-18T02:48:07.912Z,96.76
2023-12-18T02:50:41.773Z,96.79
2023-12-18T02:53:13.444Z,96.80
2023-12-18T02:55:42.230Z,96.82
2023-12-18T02:58:11.923Z,96.87
2023-12-18T03:00:40.327Z,96.88
2023-12-18T03:03:08.979Z,96.93
2023-12-18T03:05:40.791Z,97.00
2023-12-18T03:08:09.662Z,96.98
2023-12-18T03:10:42.095Z,97.05
2023-12-18T03:13:12.223Z,97.07
2023-12-18T03:15:42.107Z,97.11
2023-12-18T03:18:17.626Z,97.15
2023-12-18T03:20:46.401Z,97.19
2023-12-18T03:23:18.378Z,97.23
2023-12-18T03:25:54.596Z,97.32
2023-12-18T03:28:22.989Z,97.38
2023-12-18T03:30:52.913Z,97.35
2023-12-18T03:33:23.392Z,97.43
2023-12-18T03:35:53.008Z,97.42
2023-12-18T03:38:22.950Z,97.44
2023-12-18T03:40:52.755Z,97.42
2023-12-18T03:43:21.189Z,97.41
2023-12-18T03:45:50.509Z,97.36
2023-12-18T03:48:19.785Z,97.35
2023-12-18T03:50:49.161Z,97.28
2023-12-18T03:53:17.488Z,97.26
2023-12-18T03:55:46.593Z,97.16
2023-12-18T03:58:19.802Z,97.08
2023-12-18T04:00:47.972Z,97.00
2023-12-18T04:03:17.416Z,96.88
2023-12-18T04:05:46.437Z,96.75
2023-12-18T04:08:16.094Z,96.65
2023-12-18T04:10:45.336Z,96.52
2023-12-18T04:13:18.821Z,96.39
2023-12-18T04:15:49.430Z,96.27
2023-12-18T04:18:18.118Z,96.06
2023-12-18T04:20:46.509Z,95.91
2023-12-18T04:23:16.834Z,95.81
2023-12-18T04:25:46.207Z,95.66
2023-12-18T04:28:15.935Z,95.52
2023-12-18T04:30:45.318Z,95.42
2023-12-18T04:33:15.425Z,95.25
2023-12-18T04:35:46.927Z,95.14
2023-12-18T04:38:17.474Z,95.07
2023-12-18T04:40:46.688Z,94.97
2023-12-18T04:43:18.204Z,94.86
2023-12-18T04:45:48.943Z,94.78
2023-12-18T04:48:23.398Z,94.66
2023-12-18T04:50:52.497Z,94.57
2023-12-18T04:53:21.456Z,94.43
2023-12-18T04:55:50.672Z,94.35
2023-12-18T04:58:21.568Z,94.26
2023-12-18T05:00:50.338Z,94.13
2023-12-18T05:03:22.405Z,93.99
2023-12-18T05:05:51.637Z,93.83
2023-12-18T05:08:20.289Z,93.73
2023-12-18T05:10:49.016Z,93.59
2023-12-18T05:13:19.970Z,93.54
2023-12-18T05:15:52.968Z,93.49
2023-12-18T05:18:24.417Z,93.42
2023-12-18T05:21:01.359Z,93.43
2023-12-18T05:23:30.198Z,93.42
2023-12-18T05:25:59.472Z,93.42
2023-12-18T05:28:29.283Z,93.30
2023-12-18T05:30:58.023Z,93.24
2023-12-18T05:33:29.351Z,93.19
2023-12-18T05:35:59.369Z,93.10
2023-12-18T05:38:28.288Z,93.06
2023-12-18T05:41:00.330Z,93.00
2023-12-18T05:43:31.536Z,92.97
2023-12-18T05:46:01.280Z,92.75
2023-12-18T05:48:31.765Z,92.49
2023-12-18T05:51:00.641Z,92.37
2023-12-18T05:53:30.873Z,92.37
2023-12-18T05:56:03.779Z,92.22
2023-12-18T05:58:34.308Z,92.14
2023-12-18T06:01:03.839Z,91.84
2023-12-18T06:03:34.164Z,91.50
2023-12-18T06:06:05.568Z,91.17
2023-12-18T06:08:34.727Z,90.89
2023-12-18T06:11:08.413Z,90.63
2023-12-18T06:13:40.348Z,90.40
2023-12-18T06:16:10.262Z,90.22
2023-12-18T06:18:42.909Z,90.24
2023-12-18T06:21:11.591Z,90.32
2023-12-18T06:23:43.654Z,90.18
2023-12-18T06:26:13.601Z,90.16
2023-12-18T06:28:42.379Z,89.94
2023-12-18T06:31:15.510Z,89.89
2023-12-18T06:33:46.232Z,89.82
2023-12-18T06:36:20.593Z,89.79
2023-12-18T06:38:53.756Z,89.82
2023-12-18T06:41:26.078Z,89.66
2023-12-18T06:43:57.130Z,89.74
2023-12-18T06:46:26.875Z,89.57
2023-12-18T06:48:59.430Z,89.54
2023-12-18T06:51:27.768Z,89.40
2023-12-18T06:53:57.457Z,89.49
2023-12-18T06:56:25.854Z,89.44
2023-12-18T06:58:57.533Z,89.45
2023-12-18T07:01:30.313Z,89.41
2023-12-18T07:04:01.087Z,89.50
2023-12-18T07:06:30.978Z,89.47
2023-12-18T07:09:00.983Z,89.55
2023-12-18T07:11:29.109Z,89.45
2023-12-18T07:13:57.577Z,89.66
2023-12-18T07:16:27.613Z,90.10
2023-12-18T07:18:57.729Z,90.08
2023-12-18T07:21:29.557Z,89.86
2023-12-18T07:23:59.001Z,89.55
2023-12-18T07:26:29.068Z,89.48
2023-12-18T07:28:57.603Z,89.35
2023-12-18T07:31:27.430Z,89.43
2023-12-18T07:33:58.161Z,89.22
2023-12-18T07:36:29.386Z,89.23
2023-12-18T07:38:59.686Z,89.12
2023-12-18T07:41:32.851Z,89.29
2023-12-18T07:44:04.635Z,89.28
2023-12-18T07:46:34.624Z,89.39
2023-12-18T07:49:06.309Z,89.52
2023-12-18T07:51:37.879Z,89.55
2023-12-18T07:54:09.317Z,89.58
2023-12-18T07:56:38.477Z,89.44
2023-12-18T07:59:07.563Z,89.91
2023-12-18T08:01:37.292Z,90.32
2023-12-18T08:04:06.907Z,90.66
2023-12-18T08:06:41.735Z,90.56
2023-12-18T08:09:11.827Z,90.54
2023-12-18T08:11:41.872Z,90.63
2023-12-18T08:14:11.458Z,90.47
2023-12-18T08:16:45.420Z,90.07
2023-12-18T08:19:13.696Z,89.77
2023-12-18T08:21:44.609Z,89.54
2023-12-18T08:24:13.418Z,89.05
2023-12-18T08:26:42.150Z,88.74
2023-12-18T08:29:15.864Z,88.65
2023-12-18T08:31:44.629Z,88.38
2023-12-18T08:34:13.617Z,88.07
2023-12-18T08:36:44.192Z,87.80
2023-12-18T08:39:15.541Z,87.86
2023-12-18T08:41:47.852Z,87.76
2023-12-18T08:44:24.068Z,87.78
2023-12-18T08:46:52.842Z,88.07
2023-12-18T08:49:21.412Z,87.95
2023-12-18T08:51:51.085Z,88.32
2023-12-18T08:54:22.525Z,88.22
2023-12-18T08:56:55.376Z,88.46
2023-12-18T08:59:27.119Z,88.45
2023-12-18T09:01:55.905Z,88.66
2023-12-18T09:04:24.564Z,89.11
2023-12-18T09:06:54.455Z,88.46
2023-12-18T09:09:25.285Z,88.25
2023-12-18T09:11:55.034Z,88.18
2023-12-18T09:14:27.493Z,87.96
2023-12-18T09:16:57.543Z,87.90
2023-12-18T09:19:30.160Z,88.08
2023-12-18T09:22:02.970Z,88.09
2023-12-18T09:24:35.693Z,88.10
2023-12-18T09:27:08.532Z,87.78
2023-12-18T09:29:38.497Z,87.59
2023-12-18T09:32:11.620Z,87.64
2023-12-18T09:34:41.320Z,87.77
2023-12-18T09:37:13.367Z,87.84
2023-12-18T09:39:45.206Z,88.29
2023-12-18T09:42:17.691Z,88.45
2023-12-18T09:44:48.403Z,88.29
2023-12-18T09:47:19.908Z,88.20
2023-12-18T09:49:48.402Z,88.13
2023-12-18T09:52:22.249Z,88.29
2023-12-18T09:54:51.418Z,88.20
2023-12-18T09:57:26.455Z,88.04
2023-12-18T09:59:55.408Z,88.35
2023-12-18T10:02:25.487Z,88.77
2023-12-18T10:04:53.865Z,88.82
2023-12-18T10:07:29.198Z,88.57
2023-12-18T10:09:57.944Z,87.73
2023-12-18T10:12:27.251Z,87.58
2023-12-18T10:14:58.156Z,87.35
2023-12-18T10:17:28.884Z,86.50
2023-12-18T10:19:59.635Z,86.32
2023-12-18T10:22:34.416Z,85.86
2023-12-18T10:25:04.746Z,86.10
2023-12-18T10:27:37.708Z,86.43
2023-12-18T10:30:08.017Z,86.51
2023-12-18T10:32:38.461Z,86.48
2023-12-18T10:35:09.796Z,86.63
2023-12-18T10:37:45.636Z,86.61
2023-12-18T10:40:16.796Z,86.51
2023-12-18T10:42:47.792Z,86.50
2023-12-18T10:45:18.028Z,86.30
2023-12-18T10:47:49.887Z,86.19
2023-12-18T10:50:19.498Z,86.47
2023-12-18T10:52:50.881Z,86.04
2023-12-18T10:55:20.599Z,86.16
2023-12-18T10:57:53.731Z,86.43
2023-12-18T11:00:24.484Z,86.09
2023-12-18T11:02:54.142Z,85.48
2023-12-18T11:05:22.730Z,85.46
2023-12-18T11:07:53.048Z,85.41
2023-12-18T11:10:24.153Z,85.81
2023-12-18T11:12:56.781Z,85.61
2023-12-18T11:15:36.316Z,85.48
2023-12-18T11:18:13.472Z,85.57
2023-12-18T11:20:44.032Z,85.35
2023-12-18T11:23:18.363Z,85.44
2023-12-18T11:25:53.248Z,85.02
2023-12-18T11:28:25.986Z,85.09
2023-12-18T11:31:04.477Z,85.68
2023-12-18T11:33:45.674Z,85.65
2023-12-18T11:36:18.532Z,85.73
2023-12-18T11:38:52.347Z,85.82
2023-12-18T11:41:46.269Z,85.40
2023-12-18T11:44:16.614Z,85.62
2023-12-18T11:46:46.495Z,85.62
2023-12-18T11:49:16.491Z,85.85
2023-12-18T11:51:47.042Z,85.60
2023-12-18T11:54:26.847Z,85.60
2023-12-18T11:57:02.573Z,85.68
2023-12-18T11:59:33.357Z,86.00
2023-12-18T12:02:03.232Z,85.89
2023-12-18T12:04:34.400Z,85.98
2023-12-18T12:07:07.354Z,86.29
2023-12-18T12:09:38.846Z,86.00
2023-12-18T12:12:08.660Z,86.47
2023-12-18T12:14:37.698Z,86.17
2023-12-18T12:17:10.296Z,85.82
2023-12-18T12:19:38.677Z,86.05
2023-12-18T12:22:08.520Z,86.00
2023-12-18T12:24:44.338Z,86.17
2023-12-18T12:27:15.447Z,86.26
2023-12-18T12:29:45.575Z,85.88
2023-12-18T12:32:18.340Z,86.49
2023-12-18T12:34:49.525Z,86.89
2023-12-18T12:37:21.419Z,86.50
2023-12-18T12:40:04.151Z,86.15
2023-12-18T12:42:40.500Z,85.81
2023-12-18T12:45:12.266Z,85.20
2023-12-18T12:47:45.217Z,85.45
2023-12-18T12:50:16.814Z,85.23
2023-12-18T12:52:48.530Z,84.81
2023-12-18T12:55:23.035Z,84.51
2023-12-18T12:57:54.032Z,84.75
2023-12-18T13:00:23.807Z,84.95
2023-12-18T13:02:53.286Z,84.86
2023-12-18T13:05:22.216Z,84.73
2023-12-18T13:07:53.775Z,84.68
2023-12-18T13:10:27.483Z,85.01
2023-12-18T13:12:57.777Z,84.94
2023-12-18T13:15:27.061Z,85.08
2023-12-18T13:17:58.164Z,84.96
2023-12-18T13:20:29.589Z,85.14
2023-12-18T13:22:59.066Z,85.10
2023-12-18T13:25:29.320Z,85.07
2023-12-18T13:28:00.967Z,85.19
2023-12-18T13:30:29.531Z,85.26
2023-12-18T13:32:59.418Z,85.22
2023-12-18T13:35:28.989Z,85.27
2023-12-18T13:37:57.784Z,85.55
2023-12-18T13:40:26.896Z,86.25
2023-12-18T13:42:58.081Z,86.45
2023-12-18T13:45:26.509Z,86.07
2023-12-18T13:47:56.686Z,85.78
2023-12-18T13:50:27.765Z,85.83
2023-12-18T13:52:57.985Z,85.64
2023-12-18T13:55:28.318Z,85.66
2023-12-18T13:57:59.969Z,85.81
2023-12-18T14:00:30.534Z,85.89
2023-12-18T14:03:06.401Z,86.09
2023-12-18T14:05:35.665Z,86.19
2023-12-18T14:08:04.588Z,86.30
2023-12-18T14:10:35.235Z,86.68
2023-12-18T14:13:08.481Z,86.59
2023-12-18T14:15:37.957Z,86.56
2023-12-18T14:18:06.553Z,86.67
2023-12-18T14:20:36.327Z,86.68
2023-12-18T14:23:06.577Z,86.73
2023-12-18T14:25:36.938Z,86.65
2023-12-18T14:28:08.892Z,86.74
2023-12-18T14:30:39.439Z,86.72
2023-12-18T14:33:11.832Z,87.26
2023-12-18T14:35:40.867Z,87.33
2023-12-18T14:38:09.671Z,87.62
2023-12-18T14:40:38.693Z,87.59
2023-12-18T14:43:09.193Z,87.54
2023-12-18T14:45:38.029Z,87.51
2023-12-18T14:48:07.110Z,87.96
2023-12-18T14:50:39.325Z,87.95
2023-12-18T14:53:14.047Z,87.68
2023-12-18T14:55:45.031Z,87.61
2023-12-18T14:58:18.471Z,87.82
2023-12-18T15:00:47.380Z,88.12
2023-12-18T15:03:19.188Z,87.95
2023-12-18T15:05:50.166Z,87.89
2023-12-18T15:08:19.938Z,87.92
2023-12-18T15:10:53.651Z,88.15
2023-12-18T15:13:26.727Z,87.91
2023-12-18T15:15:56.778Z,88.08
2023-12-18T15:18:27.223Z,88.05
2023-12-18T15:20:58.810Z,88.08
2023-12-18T15:23:30.460Z,88.15
2023-12-18T15:26:01.431Z,88.25
2023-12-18T15:28:34.416Z,88.20
2023-12-18T15:31:05.718Z,88.18
2023-12-18T15:33:36.362Z,88.41
2023-12-18T15:36:13.197Z,88.53
2023-12-18T15:38:47.384Z,88.48
2023-12-18T15:41:19.505Z,88.55
2023-12-18T15:43:50.942Z,88.47
2023-12-18T15:46:22.339Z,88.42
2023-12-18T15:48:55.902Z,88.48
2023-12-18T15:51:27.234Z,88.97
2023-12-18T15:53:59.049Z,88.72
2023-12-18T15:56:30.355Z,88.82
2023-12-18T15:59:03.078Z,88.67
2023-12-18T16:01:34.169Z,88.60
2023-12-18T16:04:05.268Z,88.76
2023-12-18T16:06:37.145Z,88.49
2023-12-18T16:09:10.097Z,88.40
2023-12-18T16:11:42.091Z,88.52
2023-12-18T16:14:16.432Z,88.52
2023-12-18T16:16:48.306Z,88.46
2023-12-18T16:19:21.842Z,88.49
2023-12-18T16:21:51.806Z,88.45
2023-12-18T16:24:27.730Z,88.59
2023-12-18T16:27:16.373Z,88.72
2023-12-18T16:29:47.579Z,88.68
2023-12-18T16:32:17.852Z,88.64
2023-12-18T16:34:49.075Z,88.67
2023-12-18T16:37:22.556Z,88.77
2023-12-18T16:39:55.817Z,88.83
2023-12-18T16:42:25.806Z,88.96
2023-12-18T16:44:57.190Z,89.02
2023-12-18T16:47:28.098Z,89.09
2023-12-18T16:50:00.053Z,89.18
2023-12-18T16:52:34.009Z,89.30
2023-12-18T16:55:03.667Z,89.40
2023-12-18T16:57:33.509Z,89.51
2023-12-18T17:00:12.331Z,89.58
2023-12-18T17:02:44.334Z,89.67
2023-12-18T17:05:14.749Z,89.85
2023-12-18T17:07:44.495Z,89.96
2023-12-18T17:10:14.338Z,90.10
2023-12-18T17:12:44.039Z,90.25
2023-12-18T17:15:15.618Z,90.52
2023-12-18T17:17:45.647Z,90.62
2023-12-18T17:20:15.604Z,90.67
2023-12-18T17:22:47.431Z,90.65
2023-12-18T17:25:23.510Z,90.70
2023-12-18T17:27:53.642Z,90.61
2023-12-18T17:30:24.995Z,90.49
2023-12-18T17:32:54.319Z,90.62
2023-12-18T17:35:23.926Z,90.50
2023-12-18T17:37:56.318Z,90.41
2023-12-18T17:40:26.496Z,90.32
2023-12-18T17:42:57.103Z,90.28
2023-12-18T17:45:29.040Z,90.38
2023-12-18T17:48:00.061Z,90.37
2023-12-18T17:50:28.802Z,90.32
2023-12-18T17:52:57.670Z,90.36
2023-12-18T17:55:26.776Z,90.31
2023-12-18T17:57:55.152Z,90.26
2023-12-18T18:00:24.167Z,90.21
2023-12-18T18:02:54.560Z,90.41
2023-12-18T18:05:22.957Z,90.40
2023-12-18T18:07:53.068Z,90.50
2023-12-18T18:10:23.582Z,90.44
2023-12-18T18:12:52.001Z,90.46
2023-12-18T18:15:21.737Z,90.39
2023-12-18T18:17:52.151Z,90.53
2023-12-18T18:20:26.689Z,90.43
2023-12-18T18:22:56.136Z,90.51
2023-12-18T18:25:24.480Z,90.52
2023-12-18T18:27:53.715Z,90.54
2023-12-18T18:30:26.592Z,90.47
2023-12-18T18:32:56.097Z,90.50
2023-12-18T18:35:26.406Z,90.51
2023-12-18T18:37:58.649Z,90.54
2023-12-18T18:40:27.899Z,90.58
2023-12-18T18:42:56.713Z,90.56
2023-12-18T18:45:28.085Z,90.55
2023-12-18T18:47:57.423Z,90.49
2023-12-18T18:50:28.518Z,90.44
2023-12-18T18:52:57.215Z,90.39
2023-12-18T18:55:26.774Z,90.37
2023-12-18T18:57:59.450Z,90.36
2023-12-18T19:00:28.479Z,90.36
2023-12-18T19:02:58.188Z,90.39
2023-12-18T19:05:30.179Z,90.31
2023-12-18T19:07:58.689Z,90.40
2023-12-18T19:10:29.729Z,90.55
2023-12-18T19:12:59.084Z,90.68
2023-12-18T19:15:27.469Z,90.82
2023-12-18T19:17:57.682Z,91.07
2023-12-18T19:20:28.630Z,91.09
2023-12-18T19:22:58.967Z,91.06
2023-12-18T19:25:27.712Z,90.86
2023-12-18T19:27:56.839Z,91.01
2023-12-18T19:30:28.027Z,91.31
2023-12-18T19:33:00.463Z,91.24
2023-12-18T19:35:30.872Z,91.00
2023-12-18T19:38:01.449Z,90.84
2023-12-18T19:40:29.946Z,90.78
2023-12-18T19:42:59.516Z,90.60
2023-12-18T19:45:27.672Z,90.37
2023-12-18T19:47:57.983Z,90.10
2023-12-18T19:50:27.612Z,90.19
2023-12-18T19:52:56.968Z,90.06
2023-12-18T19:55:28.213Z,89.93
2023-12-18T19:57:56.467Z,89.83
2023-12-18T20:00:26.156Z,89.64
2023-12-18T20:02:55.601Z,89.66
2023-12-18T20:05:28.888Z,89.66
2023-12-18T20:07:57.606Z,89.63
2023-12-18T20:10:28.870Z,89.76
2023-12-18T20:12:59.779Z,89.93
2023-12-18T20:15:29.207Z,89.78
2023-12-18T20:17:58.227Z,89.63
2023-12-18T20:20:26.662Z,89.50
2023-12-18T20:22:58.066Z,89.34
2023-12-18T20:25:29.637Z,89.22
2023-12-18T20:27:59.415Z,89.07
2023-12-18T20:30:28.000Z,88.76
2023-12-18T20:32:59.165Z,88.59
2023-12-18T20:35:38.575Z,88.52
2023-12-18T20:38:07.871Z,88.23
2023-12-18T20:40:38.697Z,87.91
2023-12-18T20:43:07.100Z,87.79
2023-12-18T20:45:36.284Z,88.00
2023-12-18T20:48:06.818Z,88.09
2023-12-18T20:50:37.232Z,88.05
2023-12-18T20:53:08.372Z,87.78
2023-12-18T20:55:38.021Z,88.00
2023-12-18T20:58:06.099Z,87.72
2023-12-18T21:00:36.443Z,87.46
2023-12-18T21:03:08.650Z,87.62
2023-12-18T21:05:38.127Z,87.53
2023-12-18T21:08:07.724Z,87.45
2023-12-18T21:10:40.982Z,87.40
2023-12-18T21:13:10.049Z,87.69
2023-12-18T21:15:40.665Z,87.79
2023-12-18T21:18:09.338Z,87.93
2023-12-18T21:20:38.278Z,88.42
2023-12-18T21:23:09.052Z,88.25
2023-12-18T21:25:40.034Z,88.15
2023-12-18T21:28:09.998Z,88.14
2023-12-18T21:30:38.646Z,88.16
2023-12-18T21:33:11.815Z,88.12
2023-12-18T21:35:40.638Z,88.02
2023-12-18T21:38:09.343Z,87.96
2023-12-18T21:40:41.378Z,87.96
2023-12-18T21:43:11.379Z,87.99
2023-12-18T21:45:43.928Z,88.02
2023-12-18T21:48:15.146Z,87.94
2023-12-18T21:50:45.132Z,88.03
2023-12-18T21:53:13.589Z,87.95
2023-12-18T21:55:43.846Z,87.98
2023-12-18T21:58:12.408Z,88.02
2023-12-18T22:00:42.314Z,88.14
2023-12-18T22:03:11.210Z,88.16
2023-12-18T22:05:40.045Z,88.26
2023-12-18T22:08:08.965Z,88.24
2023-12-18T22:10:42.241Z,88.04
2023-12-18T22:13:13.544Z,87.92
2023-12-18T22:15:42.180Z,87.92
2023-12-18T22:18:11.003Z,87.89
2023-12-18T22:20:46.186Z,88.04
2023-12-18T22:23:17.070Z,88.28
2023-12-18T22:25:45.719Z,88.29
2023-12-18T22:28:17.011Z,88.25
2023-12-18T22:30:45.338Z,88.35
2023-12-18T22:33:13.926Z,88.07
2023-12-18T22:35:43.294Z,88.12
2023-12-18T22:38:11.895Z,88.04
2023-12-18T22:40:42.922Z,87.98
2023-12-18T22:43:11.715Z,87.88
2023-12-18T22:45:41.634Z,87.87
2023-12-18T22:48:10.429Z,87.67
2023-12-18T22:50:38.994Z,87.48
2023-12-18T22:53:08.515Z,87.39
2023-12-18T22:55:39.807Z,87.11
2023-12-18T22:58:10.695Z,86.82
2023-12-18T23:00:39.995Z,86.49
2023-12-18T23:03:13.122Z,86.53
2023-12-18T23:05:42.245Z,86.07
2023-12-18T23:08:11.042Z,85.91
2023-12-18T23:10:40.471Z,85.70
2023-12-18T23:13:09.017Z,85.46
2023-12-18T23:15:37.799Z,85.23
2023-12-18T23:18:07.370Z,85.74
2023-12-18T23:20:39.334Z,85.52
2023-12-18T23:23:08.488Z,85.24
2023-12-18T23:25:37.951Z,85.11
2023-12-18T23:28:06.886Z,85.31
2023-12-18T23:30:37.240Z,85.35
2023-12-18T23:33:15.000Z,84.99
2023-12-18T23:35:48.657Z,84.80
2023-12-18T23:38:19.273Z,85.09
2023-12-18T23:40:49.360Z,84.98
2023-12-18T23:43:21.393Z,85.09
2023-12-18T23:45:50.453Z,84.96
2023-12-18T23:48:20.888Z,84.70
2023-12-18T23:50:50.871Z,85.13
2023-12-18T23:53:21.952Z,85.42
2023-12-18T23:55:52.648Z,85.71
2023-12-18T23:58:22.316Z,85.23
